sensor_id;sensor_type;location;lat;lon;timestamp;temperature;humidity
10278;DHT22;5184;51.376;7.148;2023-02-10T00:02:22;3.10;99.90
10278;DHT22;5184;51.376;7.148;2023-02-10T00:04:48;3.10;1.00
10278;DHT22;5184;51.376;7.148;2023-02-10T00:07:15;3.00;1.00
10278;DHT22;5184;51.376;7.148;2023-02-10T00:09:42;3.10;99.90
10278;DHT22;5184;51.376;7.148;2023-02-10T00:12:10;3.10;99.90
10278;DHT22;5184;51.376;7.148;2023-02-10T00:14:37;3.10;99.90
10278;DHT22;5184;51.376;7.148;2023-02-10T00:17:04;3.10;1.00
10278;DHT22;5184;51.376;7.148;2023-02-10T00:19:32;3.10;1.00
10278;DHT22;5184;51.376;7.148;2023-02-10T00:21:59;3.10;1.00
10278;DHT22;5184;51.376;7.148;2023-02-10T00:24:25;3.10;1.00
10278;DHT22;5184;51.376;7.148;2023-02-10T00:26:51;3.10;99.90
10278;DHT22;5184;51.376;7.148;2023-02-10T00:29:19;3.10;99.90
10278;DHT22;5184;51.376;7.148;2023-02-10T00:31:45;3.10;99.90
10278;DHT22;5184;51.376;7.148;2023-02-10T00:34:13;3.20;99.90
10278;DHT22;5184;51.376;7.148;2023-02-10T00:36:39;3.20;99.90
10278;DHT22;5184;51.376;7.148;2023-02-10T00:39:06;3.20;99.90
10278;DHT22;5184;51.376;7.148;2023-02-10T00:41:33;3.20;1.00
10278;DHT22;5184;51.376;7.148;2023-02-10T00:44:00;3.20;1.00
10278;DHT22;5184;51.376;7.148;2023-02-10T00:46:27;3.20;1.00
10278;DHT22;5184;51.376;7.148;2023-02-10T00:48:55;3.20;17.50
10278;DHT22;5184;51.376;7.148;2023-02-10T00:51:22;3.20;35.20
10278;DHT22;5184;51.376;7.148;2023-02-10T00:53:49;3.20;1.00
10278;DHT22;5184;51.376;7.148;2023-02-10T00:56:18;3.10;1.00
10278;DHT22;5184;51.376;7.148;2023-02-10T00:58:44;3.30;1.00
10278;DHT22;5184;51.376;7.148;2023-02-10T01:01:11;3.30;1.00
10278;DHT22;5184;51.376;7.148;2023-02-10T01:03:38;3.30;1.00
10278;DHT22;5184;51.376;7.148;2023-02-10T01:06:05;3.30;1.00
10278;DHT22;5184;51.376;7.148;2023-02-10T01:08:32;3.30;1.00
10278;DHT22;5184;51.376;7.148;2023-02-10T01:11:02;3.30;99.90
10278;DHT22;5184;51.376;7.148;2023-02-10T01:13:28;3.30;99.90
10278;DHT22;5184;51.376;7.148;2023-02-10T01:15:55;3.30;1.00
10278;DHT22;5184;51.376;7.148;2023-02-10T01:18:22;3.30;1.00
10278;DHT22;5184;51.376;7.148;2023-02-10T01:20:49;3.30;1.00
10278;DHT22;5184;51.376;7.148;2023-02-10T01:23:16;3.30;4.80
10278;DHT22;5184;51.376;7.148;2023-02-10T01:25:42;3.30;99.90
10278;DHT22;5184;51.376;7.148;2023-02-10T01:28:09;3.30;99.90
10278;DHT22;5184;51.376;7.148;2023-02-10T01:30:35;3.30;99.90
10278;DHT22;5184;51.376;7.148;2023-02-10T01:33:02;3.40;99.90
10278;DHT22;5184;51.376;7.148;2023-02-10T01:35:29;3.30;99.90
10278;DHT22;5184;51.376;7.148;2023-02-10T01:37:55;3.30;99.90
10278;DHT22;5184;51.376;7.148;2023-02-10T01:40:24;3.30;1.00
10278;DHT22;5184;51.376;7.148;2023-02-10T01:42:50;3.30;1.00
10278;DHT22;5184;51.376;7.148;2023-02-10T01:45:19;3.30;1.00
10278;DHT22;5184;51.376;7.148;2023-02-10T01:47:46;3.20;1.00
10278;DHT22;5184;51.376;7.148;2023-02-10T01:50:12;3.30;1.00
10278;DHT22;5184;51.376;7.148;2023-02-10T01:52:38;3.20;99.90
10278;DHT22;5184;51.376;7.148;2023-02-10T01:55:06;3.30;99.90
10278;DHT22;5184;51.376;7.148;2023-02-10T01:57:32;3.30;99.90
10278;DHT22;5184;51.376;7.148;2023-02-10T02:00:00;3.20;99.90
10278;DHT22;5184;51.376;7.148;2023-02-10T02:02:26;3.20;99.90
10278;DHT22;5184;51.376;7.148;2023-02-10T02:04:53;3.20;1.00
10278;DHT22;5184;51.376;7.148;2023-02-10T02:07:20;3.20;25.20
10278;DHT22;5184;51.376;7.148;2023-02-10T02:09:45;3.10;99.90
10278;DHT22;5184;51.376;7.148;2023-02-10T02:12:27;3.10;99.90
10278;DHT22;5184;51.376;7.148;2023-02-10T02:14:59;3.10;1.00
10278;DHT22;5184;51.376;7.148;2023-02-10T02:17:30;3.10;99.90
10278;DHT22;5184;51.376;7.148;2023-02-10T02:28:19;3.10;1.00
10278;DHT22;5184;51.376;7.148;2023-02-10T02:30:52;3.00;1.00
10278;DHT22;5184;51.376;7.148;2023-02-10T02:33:33;3.00;1.00
10278;DHT22;5184;51.376;7.148;2023-02-10T02:36:04;3.00;14.70
10278;DHT22;5184;51.376;7.148;2023-02-10T02:38:28;3.00;13.30
10278;DHT22;5184;51.376;7.148;2023-02-10T02:40:55;3.00;75.40
10278;DHT22;5184;51.376;7.148;2023-02-10T02:43:22;3.00;57.30
10278;DHT22;5184;51.376;7.148;2023-02-10T02:46:10;3.00;99.90
10278;DHT22;5184;51.376;7.148;2023-02-10T02:49:13;3.00;99.90
10278;DHT22;5184;51.376;7.148;2023-02-10T02:51:23;3.00;99.90
10278;DHT22;5184;51.376;7.148;2023-02-10T02:53:56;2.90;1.00
10278;DHT22;5184;51.376;7.148;2023-02-10T02:56:31;2.90;1.00
10278;DHT22;5184;51.376;7.148;2023-02-10T02:58:56;2.90;1.00
10278;DHT22;5184;51.376;7.148;2023-02-10T03:01:25;2.80;11.50
10278;DHT22;5184;51.376;7.148;2023-02-10T03:03:51;2.80;24.00
10278;DHT22;5184;51.376;7.148;2023-02-10T03:06:16;2.70;1.00
10278;DHT22;5184;51.376;7.148;2023-02-10T03:08:43;2.60;1.00
10278;DHT22;5184;51.376;7.148;2023-02-10T03:11:09;2.60;1.00
10278;DHT22;5184;51.376;7.148;2023-02-10T03:13:36;2.50;1.00
10278;DHT22;5184;51.376;7.148;2023-02-10T03:16:03;2.40;1.00
10278;DHT22;5184;51.376;7.148;2023-02-10T03:18:29;2.40;1.00
10278;DHT22;5184;51.376;7.148;2023-02-10T03:20:56;2.30;1.00
10278;DHT22;5184;51.376;7.148;2023-02-10T03:23:22;2.30;57.70
10278;DHT22;5184;51.376;7.148;2023-02-10T03:25:49;2.30;96.40
10278;DHT22;5184;51.376;7.148;2023-02-10T03:28:16;2.20;99.90
10278;DHT22;5184;51.376;7.148;2023-02-10T03:30:43;2.10;99.90
10278;DHT22;5184;51.376;7.148;2023-02-10T03:33:10;2.10;99.90
10278;DHT22;5184;51.376;7.148;2023-02-10T03:35:37;2.10;99.90
10278;DHT22;5184;51.376;7.148;2023-02-10T03:38:03;2.00;99.90
10278;DHT22;5184;51.376;7.148;2023-02-10T03:40:30;2.00;99.90
10278;DHT22;5184;51.376;7.148;2023-02-10T03:42:57;1.90;1.00
10278;DHT22;5184;51.376;7.148;2023-02-10T03:45:24;1.90;1.00
10278;DHT22;5184;51.376;7.148;2023-02-10T03:47:51;1.90;1.00
10278;DHT22;5184;51.376;7.148;2023-02-10T03:50:17;1.80;1.00
10278;DHT22;5184;51.376;7.148;2023-02-10T03:52:45;1.80;1.00
10278;DHT22;5184;51.376;7.148;2023-02-10T03:55:12;1.70;1.00
10278;DHT22;5184;51.376;7.148;2023-02-10T03:57:40;1.70;1.00
10278;DHT22;5184;51.376;7.148;2023-02-10T04:00:07;1.70;1.00
10278;DHT22;5184;51.376;7.148;2023-02-10T04:02:34;1.70;30.70
10278;DHT22;5184;51.376;7.148;2023-02-10T04:05:00;1.60;36.90
10278;DHT22;5184;51.376;7.148;2023-02-10T04:07:27;1.60;58.50
10278;DHT22;5184;51.376;7.148;2023-02-10T04:09:54;1.50;73.10
10278;DHT22;5184;51.376;7.148;2023-02-10T04:12:22;1.50;81.60
10278;DHT22;5184;51.376;7.148;2023-02-10T04:14:49;1.40;80.50
10278;DHT22;5184;51.376;7.148;2023-02-10T04:17:16;1.40;77.00
10278;DHT22;5184;51.376;7.148;2023-02-10T04:19:43;1.40;76.40
10278;DHT22;5184;51.376;7.148;2023-02-10T04:22:11;1.30;91.20
10278;DHT22;5184;51.376;7.148;2023-02-10T04:24:38;1.30;95.30
10278;DHT22;5184;51.376;7.148;2023-02-10T04:27:05;1.30;95.00
10278;DHT22;5184;51.376;7.148;2023-02-10T04:29:32;1.30;95.00
10278;DHT22;5184;51.376;7.148;2023-02-10T04:32:00;1.20;93.20
10278;DHT22;5184;51.376;7.148;2023-02-10T04:34:26;1.20;92.70
10278;DHT22;5184;51.376;7.148;2023-02-10T04:36:53;1.20;74.80
10278;DHT22;5184;51.376;7.148;2023-02-10T04:39:20;1.00;78.40
10278;DHT22;5184;51.376;7.148;2023-02-10T04:41:48;1.00;71.40
10278;DHT22;5184;51.376;7.148;2023-02-10T04:44:14;0.90;71.80
10278;DHT22;5184;51.376;7.148;2023-02-10T04:46:41;0.90;68.10
10278;DHT22;5184;51.376;7.148;2023-02-10T04:49:08;0.80;65.40
10278;DHT22;5184;51.376;7.148;2023-02-10T04:51:35;0.80;83.00
10278;DHT22;5184;51.376;7.148;2023-02-10T04:54:02;0.70;86.50
10278;DHT22;5184;51.376;7.148;2023-02-10T04:56:29;0.80;86.40
10278;DHT22;5184;51.376;7.148;2023-02-10T04:58:56;0.70;92.30
10278;DHT22;5184;51.376;7.148;2023-02-10T05:01:23;0.70;99.90
10278;DHT22;5184;51.376;7.148;2023-02-10T05:03:49;0.80;99.90
10278;DHT22;5184;51.376;7.148;2023-02-10T05:06:16;0.80;99.90
10278;DHT22;5184;51.376;7.148;2023-02-10T05:08:43;0.80;99.90
10278;DHT22;5184;51.376;7.148;2023-02-10T05:11:11;0.70;99.90
10278;DHT22;5184;51.376;7.148;2023-02-10T05:13:38;0.50;99.90
10278;DHT22;5184;51.376;7.148;2023-02-10T05:16:04;0.70;99.90
10278;DHT22;5184;51.376;7.148;2023-02-10T05:18:31;0.70;99.90
10278;DHT22;5184;51.376;7.148;2023-02-10T05:20:58;0.70;99.90
10278;DHT22;5184;51.376;7.148;2023-02-10T05:23:24;0.70;99.90
10278;DHT22;5184;51.376;7.148;2023-02-10T05:25:52;0.70;99.90
10278;DHT22;5184;51.376;7.148;2023-02-10T05:31:02;0.60;99.90
10278;DHT22;5184;51.376;7.148;2023-02-10T05:33:30;0.60;99.90
10278;DHT22;5184;51.376;7.148;2023-02-10T05:35:57;0.60;99.90
10278;DHT22;5184;51.376;7.148;2023-02-10T05:38:25;0.60;99.90
10278;DHT22;5184;51.376;7.148;2023-02-10T05:40:51;0.60;99.90
10278;DHT22;5184;51.376;7.148;2023-02-10T05:43:18;0.60;99.90
10278;DHT22;5184;51.376;7.148;2023-02-10T05:45:46;0.50;99.90
10278;DHT22;5184;51.376;7.148;2023-02-10T05:48:12;0.50;99.90
10278;DHT22;5184;51.376;7.148;2023-02-10T05:50:39;0.40;99.90
10278;DHT22;5184;51.376;7.148;2023-02-10T05:53:06;0.30;99.90
10278;DHT22;5184;51.376;7.148;2023-02-10T05:55:32;0.30;99.90
10278;DHT22;5184;51.376;7.148;2023-02-10T05:57:59;0.40;99.90
10278;DHT22;5184;51.376;7.148;2023-02-10T06:00:26;0.50;99.90
10278;DHT22;5184;51.376;7.148;2023-02-10T06:02:52;0.60;99.90
10278;DHT22;5184;51.376;7.148;2023-02-10T06:05:19;0.60;99.90
10278;DHT22;5184;51.376;7.148;2023-02-10T06:07:46;0.70;99.90
10278;DHT22;5184;51.376;7.148;2023-02-10T06:10:13;0.70;99.90
10278;DHT22;5184;51.376;7.148;2023-02-10T06:12:41;0.60;99.90
10278;DHT22;5184;51.376;7.148;2023-02-10T06:15:08;0.60;99.90
10278;DHT22;5184;51.376;7.148;2023-02-10T06:17:35;0.60;99.90
10278;DHT22;5184;51.376;7.148;2023-02-10T06:20:02;0.60;99.90
10278;DHT22;5184;51.376;7.148;2023-02-10T06:22:29;0.70;99.90
10278;DHT22;5184;51.376;7.148;2023-02-10T06:24:56;0.70;99.90
10278;DHT22;5184;51.376;7.148;2023-02-10T06:27:23;0.60;99.90
10278;DHT22;5184;51.376;7.148;2023-02-10T06:29:49;0.60;99.90
10278;DHT22;5184;51.376;7.148;2023-02-10T06:32:16;0.60;99.90
10278;DHT22;5184;51.376;7.148;2023-02-10T06:34:43;0.50;99.90
10278;DHT22;5184;51.376;7.148;2023-02-10T06:37:09;0.50;99.90
10278;DHT22;5184;51.376;7.148;2023-02-10T06:39:36;0.50;99.90
10278;DHT22;5184;51.376;7.148;2023-02-10T06:42:04;0.40;99.90
10278;DHT22;5184;51.376;7.148;2023-02-10T06:44:31;0.40;99.90
10278;DHT22;5184;51.376;7.148;2023-02-10T06:46:58;0.30;99.90
10278;DHT22;5184;51.376;7.148;2023-02-10T06:49:24;0.30;99.90
10278;DHT22;5184;51.376;7.148;2023-02-10T06:51:51;0.40;99.90
10278;DHT22;5184;51.376;7.148;2023-02-10T06:54:17;0.40;99.90
10278;DHT22;5184;51.376;7.148;2023-02-10T06:56:44;0.40;99.90
10278;DHT22;5184;51.376;7.148;2023-02-10T06:59:11;0.40;99.90
10278;DHT22;5184;51.376;7.148;2023-02-10T07:01:38;0.40;99.90
10278;DHT22;5184;51.376;7.148;2023-02-10T07:04:05;0.40;99.90
10278;DHT22;5184;51.376;7.148;2023-02-10T07:06:31;0.40;99.90
10278;DHT22;5184;51.376;7.148;2023-02-10T07:08:58;0.40;99.90
10278;DHT22;5184;51.376;7.148;2023-02-10T07:11:24;0.50;99.90
10278;DHT22;5184;51.376;7.148;2023-02-10T07:13:51;0.60;99.90
10278;DHT22;5184;51.376;7.148;2023-02-10T07:16:18;0.70;99.90
10278;DHT22;5184;51.376;7.148;2023-02-10T07:18:45;0.70;99.90
10278;DHT22;5184;51.376;7.148;2023-02-10T07:21:12;0.80;99.90
10278;DHT22;5184;51.376;7.148;2023-02-10T07:23:38;1.00;99.90
10278;DHT22;5184;51.376;7.148;2023-02-10T07:26:05;1.10;99.90
10278;DHT22;5184;51.376;7.148;2023-02-10T07:28:32;1.10;99.90
10278;DHT22;5184;51.376;7.148;2023-02-10T07:30:59;1.10;99.90
10278;DHT22;5184;51.376;7.148;2023-02-10T07:33:26;1.10;99.90
10278;DHT22;5184;51.376;7.148;2023-02-10T07:35:53;1.10;99.90
10278;DHT22;5184;51.376;7.148;2023-02-10T07:38:19;1.10;99.90
10278;DHT22;5184;51.376;7.148;2023-02-10T07:40:46;1.10;99.90
10278;DHT22;5184;51.376;7.148;2023-02-10T07:43:13;1.00;99.90
10278;DHT22;5184;51.376;7.148;2023-02-10T07:45:41;1.00;99.90
10278;DHT22;5184;51.376;7.148;2023-02-10T07:48:08;0.80;99.90
10278;DHT22;5184;51.376;7.148;2023-02-10T07:50:35;0.70;99.90
10278;DHT22;5184;51.376;7.148;2023-02-10T07:53:03;0.70;99.90
10278;DHT22;5184;51.376;7.148;2023-02-10T07:55:30;0.60;99.90
10278;DHT22;5184;51.376;7.148;2023-02-10T07:57:57;0.60;99.90
10278;DHT22;5184;51.376;7.148;2023-02-10T08:00:24;0.70;99.90
10278;DHT22;5184;51.376;7.148;2023-02-10T08:02:51;0.70;99.90
10278;DHT22;5184;51.376;7.148;2023-02-10T08:05:17;0.80;99.90
10278;DHT22;5184;51.376;7.148;2023-02-10T08:07:45;0.90;99.90
10278;DHT22;5184;51.376;7.148;2023-02-10T08:10:12;1.00;99.90
10278;DHT22;5184;51.376;7.148;2023-02-10T08:12:39;1.00;99.90
10278;DHT22;5184;51.376;7.148;2023-02-10T08:15:06;1.10;99.90
10278;DHT22;5184;51.376;7.148;2023-02-10T08:17:32;1.20;99.90
10278;DHT22;5184;51.376;7.148;2023-02-10T08:20:00;1.40;99.90
10278;DHT22;5184;51.376;7.148;2023-02-10T08:22:26;1.40;99.90
10278;DHT22;5184;51.376;7.148;2023-02-10T08:24:53;1.40;99.90
10278;DHT22;5184;51.376;7.148;2023-02-10T08:27:19;1.40;99.90
10278;DHT22;5184;51.376;7.148;2023-02-10T08:29:46;1.40;99.90
10278;DHT22;5184;51.376;7.148;2023-02-10T08:32:13;1.50;99.90
10278;DHT22;5184;51.376;7.148;2023-02-10T08:34:40;1.50;99.90
10278;DHT22;5184;51.376;7.148;2023-02-10T08:37:06;1.60;99.90
10278;DHT22;5184;51.376;7.148;2023-02-10T08:39:33;1.70;99.90
10278;DHT22;5184;51.376;7.148;2023-02-10T08:42:00;1.70;99.90
10278;DHT22;5184;51.376;7.148;2023-02-10T08:44:27;1.80;99.90
10278;DHT22;5184;51.376;7.148;2023-02-10T08:46:53;1.80;99.90
10278;DHT22;5184;51.376;7.148;2023-02-10T08:49:20;1.80;99.90
10278;DHT22;5184;51.376;7.148;2023-02-10T08:51:47;1.90;99.90
10278;DHT22;5184;51.376;7.148;2023-02-10T08:54:15;1.90;99.90
10278;DHT22;5184;51.376;7.148;2023-02-10T08:56:41;1.80;99.90
10278;DHT22;5184;51.376;7.148;2023-02-10T08:59:08;1.90;99.90
10278;DHT22;5184;51.376;7.148;2023-02-10T09:01:35;1.90;99.90
10278;DHT22;5184;51.376;7.148;2023-02-10T09:04:02;2.00;99.90
10278;DHT22;5184;51.376;7.148;2023-02-10T09:06:35;2.10;99.90
10278;DHT22;5184;51.376;7.148;2023-02-10T09:08:59;2.10;99.90
10278;DHT22;5184;51.376;7.148;2023-02-10T09:11:26;2.20;99.90
10278;DHT22;5184;51.376;7.148;2023-02-10T09:13:53;2.30;99.90
10278;DHT22;5184;51.376;7.148;2023-02-10T09:16:19;2.50;99.90
10278;DHT22;5184;51.376;7.148;2023-02-10T09:18:46;2.60;99.90
10278;DHT22;5184;51.376;7.148;2023-02-10T09:21:13;2.70;99.90
10278;DHT22;5184;51.376;7.148;2023-02-10T09:23:39;2.70;99.90
10278;DHT22;5184;51.376;7.148;2023-02-10T09:26:06;2.80;99.90
10278;DHT22;5184;51.376;7.148;2023-02-10T09:28:33;2.90;99.90
10278;DHT22;5184;51.376;7.148;2023-02-10T09:30:59;3.00;99.90
10278;DHT22;5184;51.376;7.148;2023-02-10T09:33:26;3.00;97.60
10278;DHT22;5184;51.376;7.148;2023-02-10T09:35:52;3.00;77.00
10278;DHT22;5184;51.376;7.148;2023-02-10T09:38:20;3.20;50.40
10278;DHT22;5184;51.376;7.148;2023-02-10T09:40:56;3.30;69.90
10278;DHT22;5184;51.376;7.148;2023-02-10T09:43:24;3.30;69.10
10278;DHT22;5184;51.376;7.148;2023-02-10T09:45:46;3.40;43.10
10278;DHT22;5184;51.376;7.148;2023-02-10T09:51:09;3.60;1.00
10278;DHT22;5184;51.376;7.148;2023-02-10T09:53:33;3.70;1.00
10278;DHT22;5184;51.376;7.148;2023-02-10T09:56:02;3.70;1.00
10278;DHT22;5184;51.376;7.148;2023-02-10T09:58:35;3.80;1.00
10278;DHT22;5184;51.376;7.148;2023-02-10T10:01:18;3.80;1.00
10278;DHT22;5184;51.376;7.148;2023-02-10T10:03:37;3.80;1.00
10278;DHT22;5184;51.376;7.148;2023-02-10T10:06:08;3.90;1.00
10278;DHT22;5184;51.376;7.148;2023-02-10T10:08:38;4.00;1.00
10278;DHT22;5184;51.376;7.148;2023-02-10T10:11:01;4.00;1.00
10278;DHT22;5184;51.376;7.148;2023-02-10T10:13:27;4.00;1.00
10278;DHT22;5184;51.376;7.148;2023-02-10T10:16:19;4.10;1.00
10278;DHT22;5184;51.376;7.148;2023-02-10T10:21:41;4.20;99.90
10278;DHT22;5184;51.376;7.148;2023-02-10T10:24:12;4.20;99.90
10278;DHT22;5184;51.376;7.148;2023-02-10T10:26:53;4.30;1.00
10278;DHT22;5184;51.376;7.148;2023-02-10T10:29:48;4.20;1.00
10278;DHT22;5184;51.376;7.148;2023-02-10T10:32:15;4.10;1.00
10278;DHT22;5184;51.376;7.148;2023-02-10T10:34:42;4.20;1.00
10278;DHT22;5184;51.376;7.148;2023-02-10T10:37:11;4.40;99.90
10278;DHT22;5184;51.376;7.148;2023-02-10T10:39:38;4.40;99.90
10278;DHT22;5184;51.376;7.148;2023-02-10T10:42:15;4.30;99.90
10278;DHT22;5184;51.376;7.148;2023-02-10T10:44:35;4.20;99.90
10278;DHT22;5184;51.376;7.148;2023-02-10T10:47:06;4.10;99.90
10278;DHT22;5184;51.376;7.148;2023-02-10T10:49:32;4.10;99.90
10278;DHT22;5184;51.376;7.148;2023-02-10T10:51:59;4.10;1.00
10278;DHT22;5184;51.376;7.148;2023-02-10T10:54:25;4.50;1.00
10278;DHT22;5184;51.376;7.148;2023-02-10T10:56:56;4.10;1.00
10278;DHT22;5184;51.376;7.148;2023-02-10T10:59:25;4.10;1.00
10278;DHT22;5184;51.376;7.148;2023-02-10T11:01:49;4.20;1.00
10278;DHT22;5184;51.376;7.148;2023-02-10T11:04:18;4.60;99.90
10278;DHT22;5184;51.376;7.148;2023-02-10T11:06:45;4.60;99.90
10278;DHT22;5184;51.376;7.148;2023-02-10T11:09:27;5.00;99.90
10278;DHT22;5184;51.376;7.148;2023-02-10T11:11:53;5.00;99.90
10278;DHT22;5184;51.376;7.148;2023-02-10T11:14:23;5.20;99.90
10278;DHT22;5184;51.376;7.148;2023-02-10T11:16:50;5.20;1.00
10278;DHT22;5184;51.376;7.148;2023-02-10T11:19:27;5.30;1.00
10278;DHT22;5184;51.376;7.148;2023-02-10T11:21:53;5.40;1.00
10278;DHT22;5184;51.376;7.148;2023-02-10T11:24:23;5.30;1.00
10278;DHT22;5184;51.376;7.148;2023-02-10T11:26:55;5.40;79.90
10278;DHT22;5184;51.376;7.148;2023-02-10T11:29:21;5.30;99.90
10278;DHT22;5184;51.376;7.148;2023-02-10T11:31:50;5.30;99.90
10278;DHT22;5184;51.376;7.148;2023-02-10T11:34:22;5.40;99.90
10278;DHT22;5184;51.376;7.148;2023-02-10T11:36:47;5.40;99.90
10278;DHT22;5184;51.376;7.148;2023-02-10T11:39:17;5.60;94.60
10278;DHT22;5184;51.376;7.148;2023-02-10T11:41:42;5.60;70.10
10278;DHT22;5184;51.376;7.148;2023-02-10T11:44:30;5.60;1.00
10278;DHT22;5184;51.376;7.148;2023-02-10T11:46:59;5.60;1.00
10278;DHT22;5184;51.376;7.148;2023-02-10T11:49:25;5.50;1.00
10278;DHT22;5184;51.376;7.148;2023-02-10T11:51:53;5.40;99.90
10278;DHT22;5184;51.376;7.148;2023-02-10T11:54:19;5.40;99.90
10278;DHT22;5184;51.376;7.148;2023-02-10T11:57:05;5.40;1.00
10278;DHT22;5184;51.376;7.148;2023-02-10T11:59:42;5.40;1.00
10278;DHT22;5184;51.376;7.148;2023-02-10T12:02:31;5.50;99.90
10278;DHT22;5184;51.376;7.148;2023-02-10T12:05:28;5.60;99.90
10278;DHT22;5184;51.376;7.148;2023-02-10T12:07:43;5.60;1.00
10278;DHT22;5184;51.376;7.148;2023-02-10T12:12:59;5.90;99.90
10278;DHT22;5184;51.376;7.148;2023-02-10T12:15:47;6.10;1.00
10278;DHT22;5184;51.376;7.148;2023-02-10T12:18:21;6.20;1.00
10278;DHT22;5184;51.376;7.148;2023-02-10T12:23:33;6.60;1.00
10278;DHT22;5184;51.376;7.148;2023-02-10T12:26:14;6.70;99.90
10278;DHT22;5184;51.376;7.148;2023-02-10T12:28:53;6.70;1.00
10278;DHT22;5184;51.376;7.148;2023-02-10T12:34:31;6.50;1.00
10278;DHT22;5184;51.376;7.148;2023-02-10T12:37:08;6.50;1.00
10278;DHT22;5184;51.376;7.148;2023-02-10T12:39:38;6.40;99.90
10278;DHT22;5184;51.376;7.148;2023-02-10T12:42:13;6.40;1.00
10278;DHT22;5184;51.376;7.148;2023-02-10T12:44:39;6.40;1.00
10278;DHT22;5184;51.376;7.148;2023-02-10T12:47:09;6.50;1.00
10278;DHT22;5184;51.376;7.148;2023-02-10T12:49:45;6.70;99.90
10278;DHT22;5184;51.376;7.148;2023-02-10T12:52:12;6.70;99.90
10278;DHT22;5184;51.376;7.148;2023-02-10T12:57:13;6.70;99.90
10278;DHT22;5184;51.376;7.148;2023-02-10T12:59:47;6.80;99.90
10278;DHT22;5184;51.376;7.148;2023-02-10T13:02:14;6.70;42.30
10278;DHT22;5184;51.376;7.148;2023-02-10T13:04:41;6.60;54.10
10278;DHT22;5184;51.376;7.148;2023-02-10T13:07:16;6.60;1.00
10278;DHT22;5184;51.376;7.148;2023-02-10T13:09:40;6.70;1.00
10278;DHT22;5184;51.376;7.148;2023-02-10T13:12:15;6.80;99.90
10278;DHT22;5184;51.376;7.148;2023-02-10T13:14:41;6.60;99.90
10278;DHT22;5184;51.376;7.148;2023-02-10T13:17:08;6.70;99.90
10278;DHT22;5184;51.376;7.148;2023-02-10T13:19:39;6.50;1.00
10278;DHT22;5184;51.376;7.148;2023-02-10T13:23:13;6.50;1.00
10278;DHT22;5184;51.376;7.148;2023-02-10T13:24:57;6.50;1.00
10278;DHT22;5184;51.376;7.148;2023-02-10T13:27:26;6.50;1.00
10278;DHT22;5184;51.376;7.148;2023-02-10T13:30:13;6.50;1.00
10278;DHT22;5184;51.376;7.148;2023-02-10T13:35:21;6.70;1.00
10278;DHT22;5184;51.376;7.148;2023-02-10T13:37:51;6.80;1.00
10278;DHT22;5184;51.376;7.148;2023-02-10T13:40:27;6.80;1.00
10278;DHT22;5184;51.376;7.148;2023-02-10T13:42:59;7.00;1.00
10278;DHT22;5184;51.376;7.148;2023-02-10T13:45:27;7.00;1.00
10278;DHT22;5184;51.376;7.148;2023-02-10T13:47:55;7.10;1.00
10278;DHT22;5184;51.376;7.148;2023-02-10T13:50:23;7.10;1.00
10278;DHT22;5184;51.376;7.148;2023-02-10T13:52:50;7.40;1.00
10278;DHT22;5184;51.376;7.148;2023-02-10T13:55:39;7.40;1.00
10278;DHT22;5184;51.376;7.148;2023-02-10T13:58:27;7.50;1.00
10278;DHT22;5184;51.376;7.148;2023-02-10T14:00:56;7.60;1.00
10278;DHT22;5184;51.376;7.148;2023-02-10T14:03:27;7.60;6.30
10278;DHT22;5184;51.376;7.148;2023-02-10T14:06:05;7.60;99.90
10278;DHT22;5184;51.376;7.148;2023-02-10T14:08:39;7.50;99.90
10278;DHT22;5184;51.376;7.148;2023-02-10T14:11:06;7.50;99.90
10278;DHT22;5184;51.376;7.148;2023-02-10T14:13:32;7.60;99.90
10278;DHT22;5184;51.376;7.148;2023-02-10T14:16:06;7.60;99.90
10278;DHT22;5184;51.376;7.148;2023-02-10T14:18:33;7.60;99.90
10278;DHT22;5184;51.376;7.148;2023-02-10T14:21:01;7.50;99.90
10278;DHT22;5184;51.376;7.148;2023-02-10T14:23:26;7.40;99.90
10278;DHT22;5184;51.376;7.148;2023-02-10T14:25:56;7.60;99.90
10278;DHT22;5184;51.376;7.148;2023-02-10T14:28:23;7.50;99.90
10278;DHT22;5184;51.376;7.148;2023-02-10T14:30:52;7.40;99.90
10278;DHT22;5184;51.376;7.148;2023-02-10T14:33:24;7.40;99.90
10278;DHT22;5184;51.376;7.148;2023-02-10T14:35:49;7.40;99.90
10278;DHT22;5184;51.376;7.148;2023-02-10T14:38:19;7.10;99.90
10278;DHT22;5184;51.376;7.148;2023-02-10T14:40:43;7.10;99.90
10278;DHT22;5184;51.376;7.148;2023-02-10T14:43:11;7.10;99.90
10278;DHT22;5184;51.376;7.148;2023-02-10T14:45:37;7.10;1.00
10278;DHT22;5184;51.376;7.148;2023-02-10T14:48:04;7.10;1.00
10278;DHT22;5184;51.376;7.148;2023-02-10T14:50:31;7.10;99.90
10278;DHT22;5184;51.376;7.148;2023-02-10T14:52:57;7.10;1.00
10278;DHT22;5184;51.376;7.148;2023-02-10T14:55:27;7.00;1.00
10278;DHT22;5184;51.376;7.148;2023-02-10T14:57:56;7.00;1.00
10278;DHT22;5184;51.376;7.148;2023-02-10T15:00:19;6.90;1.00
10278;DHT22;5184;51.376;7.148;2023-02-10T15:02:48;6.90;1.00
10278;DHT22;5184;51.376;7.148;2023-02-10T15:05:17;7.00;1.00
10278;DHT22;5184;51.376;7.148;2023-02-10T15:07:41;7.00;1.00
10278;DHT22;5184;51.376;7.148;2023-02-10T15:12:44;6.80;1.00
10278;DHT22;5184;51.376;7.148;2023-02-10T15:15:28;6.70;1.00
10278;DHT22;5184;51.376;7.148;2023-02-10T15:17:55;6.70;1.00
10278;DHT22;5184;51.376;7.148;2023-02-10T15:20:23;6.70;1.00
10278;DHT22;5184;51.376;7.148;2023-02-10T15:22:51;6.70;1.00
10278;DHT22;5184;51.376;7.148;2023-02-10T15:25:27;6.60;1.00
10278;DHT22;5184;51.376;7.148;2023-02-10T15:27:50;6.70;1.00
10278;DHT22;5184;51.376;7.148;2023-02-10T15:30:19;6.60;1.00
10278;DHT22;5184;51.376;7.148;2023-02-10T15:32:49;6.60;1.00
10278;DHT22;5184;51.376;7.148;2023-02-10T15:35:16;6.60;1.00
10278;DHT22;5184;51.376;7.148;2023-02-10T15:37:47;6.70;1.00
10278;DHT22;5184;51.376;7.148;2023-02-10T15:40:17;6.80;1.00
10278;DHT22;5184;51.376;7.148;2023-02-10T15:42:43;6.80;1.00
10278;DHT22;5184;51.376;7.148;2023-02-10T15:45:14;6.80;99.90
10278;DHT22;5184;51.376;7.148;2023-02-10T15:47:45;6.60;99.90
10278;DHT22;5184;51.376;7.148;2023-02-10T15:50:10;6.60;99.90
10278;DHT22;5184;51.376;7.148;2023-02-10T15:52:42;6.60;1.00
10278;DHT22;5184;51.376;7.148;2023-02-10T15:55:14;6.60;99.90
10278;DHT22;5184;51.376;7.148;2023-02-10T15:57:39;6.50;1.00
10278;DHT22;5184;51.376;7.148;2023-02-10T16:00:13;6.40;1.00
10278;DHT22;5184;51.376;7.148;2023-02-10T16:02:38;6.40;1.00
10278;DHT22;5184;51.376;7.148;2023-02-10T16:05:05;6.30;1.00
10278;DHT22;5184;51.376;7.148;2023-02-10T16:07:32;6.20;1.00
10278;DHT22;5184;51.376;7.148;2023-02-10T16:09:59;6.20;1.00
10278;DHT22;5184;51.376;7.148;2023-02-10T16:12:27;6.20;1.00
10278;DHT22;5184;51.376;7.148;2023-02-10T16:14:54;6.10;1.00
10278;DHT22;5184;51.376;7.148;2023-02-10T16:17:23;6.10;1.00
10278;DHT22;5184;51.376;7.148;2023-02-10T16:19:49;6.00;1.00
10278;DHT22;5184;51.376;7.148;2023-02-10T16:22:15;6.00;1.00
10278;DHT22;5184;51.376;7.148;2023-02-10T16:24:42;5.90;1.00
10278;DHT22;5184;51.376;7.148;2023-02-10T16:27:10;5.80;26.00
10278;DHT22;5184;51.376;7.148;2023-02-10T16:29:35;5.70;99.90
10278;DHT22;5184;51.376;7.148;2023-02-10T16:32:02;5.70;99.90
10278;DHT22;5184;51.376;7.148;2023-02-10T16:34:29;5.50;99.90
10278;DHT22;5184;51.376;7.148;2023-02-10T16:36:56;5.50;99.90
10278;DHT22;5184;51.376;7.148;2023-02-10T16:39:23;5.50;99.90
10278;DHT22;5184;51.376;7.148;2023-02-10T16:41:50;5.40;99.90
10278;DHT22;5184;51.376;7.148;2023-02-10T16:44:17;5.40;1.00
10278;DHT22;5184;51.376;7.148;2023-02-10T16:46:44;5.30;1.00
10278;DHT22;5184;51.376;7.148;2023-02-10T16:49:11;5.30;1.00